sensor_id;sensor_type;location;lat;lon;timestamp;P1;durP1;ratioP1;P2;durP2;ratioP2
11010;SDS011;5558;42.702;23.178;2024-03-17T00:01:00;31.17;;;26.50;;
11010;SDS011;5558;42.702;23.178;2024-03-17T00:03:27;30.00;;;26.10;;
11010;SDS011;5558;42.702;23.178;2024-03-17T00:05:56;29.67;;;25.93;;
11010;SDS011;5558;42.702;23.178;2024-03-17T00:08:23;30.30;;;26.23;;
11010;SDS011;5558;42.702;23.178;2024-03-17T00:10:49;34.60;;;27.27;;
11010;SDS011;5558;42.702;23.178;2024-03-17T00:13:16;33.17;;;27.07;;
11010;SDS011;5558;42.702;23.178;2024-03-17T00:15:42;34.10;;;28.43;;
11010;SDS011;5558;42.702;23.178;2024-03-17T00:18:09;35.07;;;27.20;;
11010;SDS011;5558;42.702;23.178;2024-03-17T00:20:36;32.63;;;26.37;;
11010;SDS011;5558;42.702;23.178;2024-03-17T00:23:05;34.43;;;26.37;;
11010;SDS011;5558;42.702;23.178;2024-03-17T00:25:31;35.50;;;26.47;;
11010;SDS011;5558;42.702;23.178;2024-03-17T00:27:59;34.47;;;25.77;;
11010;SDS011;5558;42.702;23.178;2024-03-17T00:30:24;34.90;;;26.27;;
11010;SDS011;5558;42.702;23.178;2024-03-17T00:32:51;33.73;;;26.37;;
11010;SDS011;5558;42.702;23.178;2024-03-17T00:35:17;38.43;;;26.97;;
11010;SDS011;5558;42.702;23.178;2024-03-17T00:37:46;37.07;;;26.90;;
11010;SDS011;5558;42.702;23.178;2024-03-17T00:40:13;34.77;;;26.03;;
11010;SDS011;5558;42.702;23.178;2024-03-17T00:42:41;33.83;;;25.43;;
11010;SDS011;5558;42.702;23.178;2024-03-17T00:45:08;32.63;;;26.13;;
11010;SDS011;5558;42.702;23.178;2024-03-17T00:47:35;32.27;;;25.73;;
11010;SDS011;5558;42.702;23.178;2024-03-17T00:50:02;30.50;;;25.23;;
11010;SDS011;5558;42.702;23.178;2024-03-17T00:52:29;29.70;;;24.97;;
11010;SDS011;5558;42.702;23.178;2024-03-17T00:54:56;30.77;;;25.47;;
11010;SDS011;5558;42.702;23.178;2024-03-17T00:57:23;29.33;;;26.13;;
11010;SDS011;5558;42.702;23.178;2024-03-17T00:59:50;31.43;;;25.83;;
11010;SDS011;5558;42.702;23.178;2024-03-17T01:02:15;29.77;;;26.03;;
11010;SDS011;5558;42.702;23.178;2024-03-17T01:04:43;31.03;;;25.70;;
11010;SDS011;5558;42.702;23.178;2024-03-17T01:07:09;32.90;;;26.97;;
11010;SDS011;5558;42.702;23.178;2024-03-17T01:09:36;33.03;;;27.37;;
11010;SDS011;5558;42.702;23.178;2024-03-17T01:12:02;30.97;;;27.40;;
11010;SDS011;5558;42.702;23.178;2024-03-17T01:14:30;30.80;;;27.47;;
11010;SDS011;5558;42.702;23.178;2024-03-17T01:16:56;31.53;;;26.90;;
11010;SDS011;5558;42.702;23.178;2024-03-17T01:19:23;30.30;;;26.50;;
11010;SDS011;5558;42.702;23.178;2024-03-17T01:21:50;30.60;;;27.20;;
11010;SDS011;5558;42.702;23.178;2024-03-17T01:24:17;33.17;;;27.97;;
11010;SDS011;5558;42.702;23.178;2024-03-17T01:26:42;31.67;;;28.03;;
11010;SDS011;5558;42.702;23.178;2024-03-17T01:29:10;31.20;;;27.90;;
11010;SDS011;5558;42.702;23.178;2024-03-17T01:31:37;32.03;;;27.20;;
11010;SDS011;5558;42.702;23.178;2024-03-17T01:34:03;31.17;;;27.23;;
11010;SDS011;5558;42.702;23.178;2024-03-17T01:36:29;31.63;;;27.90;;
11010;SDS011;5558;42.702;23.178;2024-03-17T01:38:56;29.97;;;25.73;;
11010;SDS011;5558;42.702;23.178;2024-03-17T01:41:21;29.97;;;26.43;;
11010;SDS011;5558;42.702;23.178;2024-03-17T01:43:48;30.97;;;27.03;;
11010;SDS011;5558;42.702;23.178;2024-03-17T01:46:14;30.10;;;26.10;;
11010;SDS011;5558;42.702;23.178;2024-03-17T01:48:44;30.40;;;25.67;;
11010;SDS011;5558;42.702;23.178;2024-03-17T01:51:11;29.57;;;25.53;;
11010;SDS011;5558;42.702;23.178;2024-03-17T01:53:39;31.67;;;26.20;;
11010;SDS011;5558;42.702;23.178;2024-03-17T01:56:07;30.67;;;26.73;;
11010;SDS011;5558;42.702;23.178;2024-03-17T01:58:36;31.13;;;27.33;;
11010;SDS011;5558;42.702;23.178;2024-03-17T02:01:02;32.07;;;26.80;;
11010;SDS011;5558;42.702;23.178;2024-03-17T02:03:30;31.50;;;26.77;;
11010;SDS011;5558;42.702;23.178;2024-03-17T02:05:58;31.47;;;27.10;;
11010;SDS011;5558;42.702;23.178;2024-03-17T02:08:24;32.23;;;27.13;;
11010;SDS011;5558;42.702;23.178;2024-03-17T02:10:52;32.93;;;27.80;;
11010;SDS011;5558;42.702;23.178;2024-03-17T02:13:18;31.87;;;26.97;;
11010;SDS011;5558;42.702;23.178;2024-03-17T02:15:46;30.57;;;26.73;;
11010;SDS011;5558;42.702;23.178;2024-03-17T02:18:12;29.87;;;26.20;;
11010;SDS011;5558;42.702;23.178;2024-03-17T02:20:38;27.63;;;24.67;;
11010;SDS011;5558;42.702;23.178;2024-03-17T02:23:24;32.27;;;25.53;;
11010;SDS011;5558;42.702;23.178;2024-03-17T02:25:51;31.33;;;26.57;;
11010;SDS011;5558;42.702;23.178;2024-03-17T02:28:17;37.13;;;30.27;;
11010;SDS011;5558;42.702;23.178;2024-03-17T02:30:44;40.30;;;31.60;;
11010;SDS011;5558;42.702;23.178;2024-03-17T02:33:10;39.97;;;32.77;;
11010;SDS011;5558;42.702;23.178;2024-03-17T02:35:36;40.63;;;30.13;;
11010;SDS011;5558;42.702;23.178;2024-03-17T02:38:02;39.43;;;30.27;;
11010;SDS011;5558;42.702;23.178;2024-03-17T02:40:30;35.90;;;28.00;;
11010;SDS011;5558;42.702;23.178;2024-03-17T02:42:56;30.17;;;26.30;;
11010;SDS011;5558;42.702;23.178;2024-03-17T02:45:23;30.63;;;24.90;;
11010;SDS011;5558;42.702;23.178;2024-03-17T02:47:49;31.43;;;25.70;;
11010;SDS011;5558;42.702;23.178;2024-03-17T02:50:16;32.70;;;25.67;;
11010;SDS011;5558;42.702;23.178;2024-03-17T02:52:43;33.10;;;26.53;;
11010;SDS011;5558;42.702;23.178;2024-03-17T02:55:10;29.67;;;24.93;;
11010;SDS011;5558;42.702;23.178;2024-03-17T02:57:38;30.17;;;23.93;;
11010;SDS011;5558;42.702;23.178;2024-03-17T03:00:06;27.63;;;22.63;;
11010;SDS011;5558;42.702;23.178;2024-03-17T03:02:38;29.23;;;22.87;;
11010;SDS011;5558;42.702;23.178;2024-03-17T03:05:04;28.90;;;23.17;;
11010;SDS011;5558;42.702;23.178;2024-03-17T03:07:31;29.50;;;25.53;;
11010;SDS011;5558;42.702;23.178;2024-03-17T03:09:58;30.97;;;25.07;;
11010;SDS011;5558;42.702;23.178;2024-03-17T03:12:25;33.00;;;25.43;;
11010;SDS011;5558;42.702;23.178;2024-03-17T03:14:53;31.77;;;25.93;;
11010;SDS011;5558;42.702;23.178;2024-03-17T03:17:20;30.77;;;24.57;;
11010;SDS011;5558;42.702;23.178;2024-03-17T03:19:46;30.80;;;25.20;;
11010;SDS011;5558;42.702;23.178;2024-03-17T03:22:13;30.40;;;24.17;;
11010;SDS011;5558;42.702;23.178;2024-03-17T03:24:40;28.23;;;22.50;;
11010;SDS011;5558;42.702;23.178;2024-03-17T03:27:07;28.43;;;22.97;;
11010;SDS011;5558;42.702;23.178;2024-03-17T03:29:34;26.53;;;21.70;;
11010;SDS011;5558;42.702;23.178;2024-03-17T03:32:03;27.23;;;22.30;;
11010;SDS011;5558;42.702;23.178;2024-03-17T03:34:31;27.23;;;22.43;;
11010;SDS011;5558;42.702;23.178;2024-03-17T03:36:58;27.87;;;23.57;;
11010;SDS011;5558;42.702;23.178;2024-03-17T03:39:25;28.77;;;23.00;;
11010;SDS011;5558;42.702;23.178;2024-03-17T03:41:56;28.20;;;23.93;;
11010;SDS011;5558;42.702;23.178;2024-03-17T03:44:23;26.60;;;22.73;;
11010;SDS011;5558;42.702;23.178;2024-03-17T03:46:50;28.20;;;23.00;;
11010;SDS011;5558;42.702;23.178;2024-03-17T03:49:19;27.63;;;23.00;;
11010;SDS011;5558;42.702;23.178;2024-03-17T03:51:46;30.23;;;23.90;;
11010;SDS011;5558;42.702;23.178;2024-03-17T03:54:12;30.43;;;24.23;;
11010;SDS011;5558;42.702;23.178;2024-03-17T03:56:39;29.43;;;24.13;;
11010;SDS011;5558;42.702;23.178;2024-03-17T03:59:06;28.70;;;23.67;;
11010;SDS011;5558;42.702;23.178;2024-03-17T04:01:33;26.70;;;23.17;;
11010;SDS011;5558;42.702;23.178;2024-03-17T04:03:59;32.10;;;24.30;;
11010;SDS011;5558;42.702;23.178;2024-03-17T04:06:27;32.53;;;25.70;;
11010;SDS011;5558;42.702;23.178;2024-03-17T04:08:54;31.13;;;25.20;;
11010;SDS011;5558;42.702;23.178;2024-03-17T04:11:20;33.83;;;26.10;;
11010;SDS011;5558;42.702;23.178;2024-03-17T04:13:47;28.60;;;22.90;;
11010;SDS011;5558;42.702;23.178;2024-03-17T04:16:14;30.10;;;24.30;;
11010;SDS011;5558;42.702;23.178;2024-03-17T04:18:40;31.13;;;25.00;;
11010;SDS011;5558;42.702;23.178;2024-03-17T04:21:07;56.57;;;51.13;;
11010;SDS011;5558;42.702;23.178;2024-03-17T04:23:35;37.63;;;30.97;;
11010;SDS011;5558;42.702;23.178;2024-03-17T04:26:03;39.33;;;30.60;;
11010;SDS011;5558;42.702;23.178;2024-03-17T04:28:32;33.50;;;26.43;;
11010;SDS011;5558;42.702;23.178;2024-03-17T04:31:02;29.97;;;23.67;;
11010;SDS011;5558;42.702;23.178;2024-03-17T04:33:30;27.43;;;22.27;;
11010;SDS011;5558;42.702;23.178;2024-03-17T04:35:58;24.83;;;20.23;;
11010;SDS011;5558;42.702;23.178;2024-03-17T04:38:24;23.47;;;20.20;;
11010;SDS011;5558;42.702;23.178;2024-03-17T04:40:52;24.40;;;20.00;;
11010;SDS011;5558;42.702;23.178;2024-03-17T04:43:28;23.73;;;21.03;;
11010;SDS011;5558;42.702;23.178;2024-03-17T04:46:00;27.53;;;21.97;;
11010;SDS011;5558;42.702;23.178;2024-03-17T04:48:29;27.27;;;23.10;;
11010;SDS011;5558;42.702;23.178;2024-03-17T04:50:56;30.57;;;24.97;;
11010;SDS011;5558;42.702;23.178;2024-03-17T04:53:22;32.53;;;26.50;;
11010;SDS011;5558;42.702;23.178;2024-03-17T04:55:58;35.33;;;27.57;;
11010;SDS011;5558;42.702;23.178;2024-03-17T04:58:25;34.67;;;26.80;;
11010;SDS011;5558;42.702;23.178;2024-03-17T05:00:52;31.93;;;24.93;;
11010;SDS011;5558;42.702;23.178;2024-03-17T05:03:19;25.07;;;22.30;;
11010;SDS011;5558;42.702;23.178;2024-03-17T05:05:45;21.10;;;18.53;;
11010;SDS011;5558;42.702;23.178;2024-03-17T05:08:12;19.97;;;17.87;;
11010;SDS011;5558;42.702;23.178;2024-03-17T05:10:39;19.50;;;17.50;;
11010;SDS011;5558;42.702;23.178;2024-03-17T05:13:07;21.33;;;18.13;;
11010;SDS011;5558;42.702;23.178;2024-03-17T05:15:36;19.90;;;17.70;;
11010;SDS011;5558;42.702;23.178;2024-03-17T05:18:03;19.30;;;17.30;;
11010;SDS011;5558;42.702;23.178;2024-03-17T05:20:30;19.63;;;17.53;;
11010;SDS011;5558;42.702;23.178;2024-03-17T05:22:57;18.23;;;16.33;;
11010;SDS011;5558;42.702;23.178;2024-03-17T05:25:24;16.50;;;14.70;;
11010;SDS011;5558;42.702;23.178;2024-03-17T05:27:50;16.37;;;14.30;;
11010;SDS011;5558;42.702;23.178;2024-03-17T05:30:18;15.70;;;14.10;;
11010;SDS011;5558;42.702;23.178;2024-03-17T05:32:45;15.87;;;14.17;;
11010;SDS011;5558;42.702;23.178;2024-03-17T05:35:12;16.33;;;14.57;;
11010;SDS011;5558;42.702;23.178;2024-03-17T05:37:39;17.63;;;15.73;;
11010;SDS011;5558;42.702;23.178;2024-03-17T05:40:06;18.27;;;15.77;;
11010;SDS011;5558;42.702;23.178;2024-03-17T05:42:37;17.13;;;15.10;;
11010;SDS011;5558;42.702;23.178;2024-03-17T05:45:04;17.03;;;15.23;;
11010;SDS011;5558;42.702;23.178;2024-03-17T05:47:32;16.73;;;15.03;;
11010;SDS011;5558;42.702;23.178;2024-03-17T05:49:59;17.20;;;15.33;;
11010;SDS011;5558;42.702;23.178;2024-03-17T05:52:26;15.93;;;14.33;;
11010;SDS011;5558;42.702;23.178;2024-03-17T05:54:52;15.60;;;14.00;;
11010;SDS011;5558;42.702;23.178;2024-03-17T05:57:20;16.23;;;14.53;;
11010;SDS011;5558;42.702;23.178;2024-03-17T05:59:47;16.23;;;14.47;;
11010;SDS011;5558;42.702;23.178;2024-03-17T06:02:14;15.83;;;14.13;;
11010;SDS011;5558;42.702;23.178;2024-03-17T06:04:42;16.40;;;14.70;;
11010;SDS011;5558;42.702;23.178;2024-03-17T06:07:09;19.00;;;15.50;;
11010;SDS011;5558;42.702;23.178;2024-03-17T06:09:35;18.17;;;15.60;;
11010;SDS011;5558;42.702;23.178;2024-03-17T06:12:02;18.47;;;15.40;;
11010;SDS011;5558;42.702;23.178;2024-03-17T06:14:29;19.43;;;15.87;;
11010;SDS011;5558;42.702;23.178;2024-03-17T06:16:56;17.63;;;15.30;;
11010;SDS011;5558;42.702;23.178;2024-03-17T06:19:23;16.10;;;14.03;;
11010;SDS011;5558;42.702;23.178;2024-03-17T06:21:51;16.43;;;14.63;;
11010;SDS011;5558;42.702;23.178;2024-03-17T06:24:17;19.83;;;15.57;;
11010;SDS011;5558;42.702;23.178;2024-03-17T06:26:44;20.13;;;15.53;;
11010;SDS011;5558;42.702;23.178;2024-03-17T06:29:12;19.50;;;15.80;;
11010;SDS011;5558;42.702;23.178;2024-03-17T06:31:38;18.17;;;15.40;;
11010;SDS011;5558;42.702;23.178;2024-03-17T06:34:05;15.33;;;13.63;;
11010;SDS011;5558;42.702;23.178;2024-03-17T06:36:31;13.73;;;11.87;;
11010;SDS011;5558;42.702;23.178;2024-03-17T06:38:59;14.47;;;11.83;;
11010;SDS011;5558;42.702;23.178;2024-03-17T06:41:26;12.93;;;11.63;;
11010;SDS011;5558;42.702;23.178;2024-03-17T06:43:53;13.07;;;11.67;;
11010;SDS011;5558;42.702;23.178;2024-03-17T06:46:19;13.03;;;11.40;;
11010;SDS011;5558;42.702;23.178;2024-03-17T06:48:46;13.37;;;11.50;;
11010;SDS011;5558;42.702;23.178;2024-03-17T06:51:13;10.77;;;9.67;;
11010;SDS011;5558;42.702;23.178;2024-03-17T06:53:39;11.57;;;10.47;;
11010;SDS011;5558;42.702;23.178;2024-03-17T06:56:07;11.53;;;10.43;;
11010;SDS011;5558;42.702;23.178;2024-03-17T06:58:34;11.70;;;10.50;;
11010;SDS011;5558;42.702;23.178;2024-03-17T07:01:01;12.17;;;10.87;;
11010;SDS011;5558;42.702;23.178;2024-03-17T07:03:29;12.80;;;10.67;;
11010;SDS011;5558;42.702;23.178;2024-03-17T07:05:57;14.77;;;11.80;;
11010;SDS011;5558;42.702;23.178;2024-03-17T07:08:27;13.70;;;11.70;;
11010;SDS011;5558;42.702;23.178;2024-03-17T07:10:57;18.53;;;13.97;;
11010;SDS011;5558;42.702;23.178;2024-03-17T07:13:27;13.57;;;12.13;;
11010;SDS011;5558;42.702;23.178;2024-03-17T07:15:55;13.33;;;11.67;;
11010;SDS011;5558;42.702;23.178;2024-03-17T07:18:21;12.43;;;11.13;;
11010;SDS011;5558;42.702;23.178;2024-03-17T07:20:48;13.03;;;11.43;;
11010;SDS011;5558;42.702;23.178;2024-03-17T07:23:14;14.33;;;11.90;;
11010;SDS011;5558;42.702;23.178;2024-03-17T07:25:41;12.47;;;10.97;;
11010;SDS011;5558;42.702;23.178;2024-03-17T07:28:08;12.93;;;11.57;;
11010;SDS011;5558;42.702;23.178;2024-03-17T07:30:36;15.43;;;13.13;;
11010;SDS011;5558;42.702;23.178;2024-03-17T07:33:03;16.43;;;13.67;;
11010;SDS011;5558;42.702;23.178;2024-03-17T07:35:30;13.77;;;12.20;;
11010;SDS011;5558;42.702;23.178;2024-03-17T07:37:57;14.27;;;12.03;;
11010;SDS011;5558;42.702;23.178;2024-03-17T07:40:24;14.17;;;11.70;;
11010;SDS011;5558;42.702;23.178;2024-03-17T07:42:50;14.20;;;12.60;;
11010;SDS011;5558;42.702;23.178;2024-03-17T07:45:18;13.97;;;11.60;;
11010;SDS011;5558;42.702;23.178;2024-03-17T07:47:46;13.33;;;11.93;;
11010;SDS011;5558;42.702;23.178;2024-03-17T07:50:13;14.20;;;11.47;;
11010;SDS011;5558;42.702;23.178;2024-03-17T07:52:39;13.50;;;11.73;;
11010;SDS011;5558;42.702;23.178;2024-03-17T07:55:06;16.43;;;12.77;;
11010;SDS011;5558;42.702;23.178;2024-03-17T07:57:34;16.00;;;14.00;;
11010;SDS011;5558;42.702;23.178;2024-03-17T08:00:01;16.47;;;13.63;;
11010;SDS011;5558;42.702;23.178;2024-03-17T08:02:28;15.73;;;14.13;;
11010;SDS011;5558;42.702;23.178;2024-03-17T08:04:56;17.57;;;14.60;;
11010;SDS011;5558;42.702;23.178;2024-03-17T08:07:23;15.80;;;13.97;;
11010;SDS011;5558;42.702;23.178;2024-03-17T08:09:49;17.70;;;14.07;;
11010;SDS011;5558;42.702;23.178;2024-03-17T08:12:16;20.90;;;14.53;;
11010;SDS011;5558;42.702;23.178;2024-03-17T08:14:43;18.43;;;15.77;;
11010;SDS011;5558;42.702;23.178;2024-03-17T08:17:09;17.47;;;15.00;;
11010;SDS011;5558;42.702;23.178;2024-03-17T08:19:36;19.70;;;15.07;;
11010;SDS011;5558;42.702;23.178;2024-03-17T08:22:05;16.67;;;14.07;;
11010;SDS011;5558;42.702;23.178;2024-03-17T08:24:32;16.70;;;14.87;;
11010;SDS011;5558;42.702;23.178;2024-03-17T08:26:58;15.80;;;13.97;;
11010;SDS011;5558;42.702;23.178;2024-03-17T08:29:25;15.17;;;13.50;;
11010;SDS011;5558;42.702;23.178;2024-03-17T08:31:52;15.40;;;13.80;;
11010;SDS011;5558;42.702;23.178;2024-03-17T08:34:18;15.70;;;13.93;;
11010;SDS011;5558;42.702;23.178;2024-03-17T08:36:45;14.10;;;12.60;;
11010;SDS011;5558;42.702;23.178;2024-03-17T08:39:13;15.13;;;12.60;;
11010;SDS011;5558;42.702;23.178;2024-03-17T08:41:39;14.37;;;12.23;;
11010;SDS011;5558;42.702;23.178;2024-03-17T08:44:06;12.10;;;10.90;;
11010;SDS011;5558;42.702;23.178;2024-03-17T08:46:33;12.67;;;11.17;;
11010;SDS011;5558;42.702;23.178;2024-03-17T08:48:59;13.27;;;11.83;;
11010;SDS011;5558;42.702;23.178;2024-03-17T08:51:26;14.83;;;12.23;;
11010;SDS011;5558;42.702;23.178;2024-03-17T08:53:53;13.37;;;11.90;;
11010;SDS011;5558;42.702;23.178;2024-03-17T08:56:23;12.20;;;10.87;;
11010;SDS011;5558;42.702;23.178;2024-03-17T08:58:50;12.20;;;10.90;;
11010;SDS011;5558;42.702;23.178;2024-03-17T09:01:16;12.83;;;11.43;;
11010;SDS011;5558;42.702;23.178;2024-03-17T09:03:43;13.43;;;11.70;;
11010;SDS011;5558;42.702;23.178;2024-03-17T09:06:16;12.30;;;11.00;;
11010;SDS011;5558;42.702;23.178;2024-03-17T09:08:44;11.53;;;10.37;;
11010;SDS011;5558;42.702;23.178;2024-03-17T09:11:12;10.97;;;9.87;;
11010;SDS011;5558;42.702;23.178;2024-03-17T09:13:40;10.83;;;9.73;;
11010;SDS011;5558;42.702;23.178;2024-03-17T09:16:07;11.70;;;9.93;;
11010;SDS011;5558;42.702;23.178;2024-03-17T09:18:38;10.40;;;9.30;;
11010;SDS011;5558;42.702;23.178;2024-03-17T09:21:05;10.30;;;9.20;;
11010;SDS011;5558;42.702;23.178;2024-03-17T09:23:33;10.90;;;9.13;;
11010;SDS011;5558;42.702;23.178;2024-03-17T09:26:02;9.90;;;8.83;;
11010;SDS011;5558;42.702;23.178;2024-03-17T09:28:31;10.10;;;8.80;;
11010;SDS011;5558;42.702;23.178;2024-03-17T09:31:00;9.80;;;8.80;;
11010;SDS011;5558;42.702;23.178;2024-03-17T09:33:28;9.50;;;8.50;;
11010;SDS011;5558;42.702;23.178;2024-03-17T09:35:55;8.73;;;7.87;;
11010;SDS011;5558;42.702;23.178;2024-03-17T09:38:24;9.30;;;8.27;;
11010;SDS011;5558;42.702;23.178;2024-03-17T09:40:50;8.70;;;7.50;;
11010;SDS011;5558;42.702;23.178;2024-03-17T09:43:18;8.40;;;7.53;;
11010;SDS011;5558;42.702;23.178;2024-03-17T09:45:45;7.10;;;6.40;;
11010;SDS011;5558;42.702;23.178;2024-03-17T09:48:15;7.73;;;6.93;;
11010;SDS011;5558;42.702;23.178;2024-03-17T09:50:46;7.47;;;6.53;;
11010;SDS011;5558;42.702;23.178;2024-03-17T09:53:17;8.10;;;7.27;;
11010;SDS011;5558;42.702;23.178;2024-03-17T09:55:49;6.00;;;5.50;;
11010;SDS011;5558;42.702;23.178;2024-03-17T09:58:16;6.90;;;5.47;;
11010;SDS011;5558;42.702;23.178;2024-03-17T10:00:43;5.60;;;5.10;;
11010;SDS011;5558;42.702;23.178;2024-03-17T10:03:10;4.90;;;4.50;;
11010;SDS011;5558;42.702;23.178;2024-03-17T10:05:39;5.17;;;4.67;;
11010;SDS011;5558;42.702;23.178;2024-03-17T10:08:05;6.30;;;5.30;;
11010;SDS011;5558;42.702;23.178;2024-03-17T10:10:33;6.60;;;5.47;;
11010;SDS011;5558;42.702;23.178;2024-03-17T10:13:00;6.37;;;5.50;;
11010;SDS011;5558;42.702;23.178;2024-03-17T10:15:27;6.00;;;5.33;;
11010;SDS011;5558;42.702;23.178;2024-03-17T10:17:54;8.50;;;6.40;;
11010;SDS011;5558;42.702;23.178;2024-03-17T10:20:21;6.43;;;5.83;;
11010;SDS011;5558;42.702;23.178;2024-03-17T10:22:59;7.27;;;6.23;;
11010;SDS011;5558;42.702;23.178;2024-03-17T10:25:27;6.87;;;5.43;;
11010;SDS011;5558;42.702;23.178;2024-03-17T10:27:55;10.10;;;6.27;;
11010;SDS011;5558;42.702;23.178;2024-03-17T10:30:22;6.13;;;5.53;;
11010;SDS011;5558;42.702;23.178;2024-03-17T10:32:57;6.10;;;5.50;;
11010;SDS011;5558;42.702;23.178;2024-03-17T10:35:29;10.60;;;8.67;;
11010;SDS011;5558;42.702;23.178;2024-03-17T10:37:59;4.23;;;3.77;;
11010;SDS011;5558;42.702;23.178;2024-03-17T10:40:26;4.20;;;3.80;;
11010;SDS011;5558;42.702;23.178;2024-03-17T10:42:54;4.53;;;3.83;;
11010;SDS011;5558;42.702;23.178;2024-03-17T10:45:22;4.60;;;3.70;;
11010;SDS011;5558;42.702;23.178;2024-03-17T10:47:50;3.97;;;3.67;;
11010;SDS011;5558;42.702;23.178;2024-03-17T10:50:18;3.90;;;3.50;;
11010;SDS011;5558;42.702;23.178;2024-03-17T10:52:46;3.80;;;3.50;;
11010;SDS011;5558;42.702;23.178;2024-03-17T10:55:24;3.60;;;3.30;;
11010;SDS011;5558;42.702;23.178;2024-03-17T10:57:53;3.50;;;3.00;;
11010;SDS011;5558;42.702;23.178;2024-03-17T11:00:23;3.80;;;3.50;;
11010;SDS011;5558;42.702;23.178;2024-03-17T11:02:51;3.70;;;3.40;;
11010;SDS011;5558;42.702;23.178;2024-03-17T11:05:21;3.60;;;3.30;;
11010;SDS011;5558;42.702;23.178;2024-03-17T11:07:50;17.63;;;3.40;;
11010;SDS011;5558;42.702;23.178;2024-03-17T11:10:21;3.60;;;3.23;;
11010;SDS011;5558;42.702;23.178;2024-03-17T11:12:50;3.30;;;3.00;;
11010;SDS011;5558;42.702;23.178;2024-03-17T11:18:29;3.63;;;3.33;;
11010;SDS011;5558;42.702;23.178;2024-03-17T11:20:59;3.30;;;3.10;;
11010;SDS011;5558;42.702;23.178;2024-03-17T11:23:28;3.20;;;3.00;;
11010;SDS011;5558;42.702;23.178;2024-03-17T11:25:57;3.50;;;3.20;;
11010;SDS011;5558;42.702;23.178;2024-03-17T11:31:31;4.13;;;3.77;;
11010;SDS011;5558;42.702;23.178;2024-03-17T11:34:05;4.33;;;3.93;;
11010;SDS011;5558;42.702;23.178;2024-03-17T11:36:33;5.30;;;4.80;;
11010;SDS011;5558;42.702;23.178;2024-03-17T11:39:02;4.47;;;4.07;;
11010;SDS011;5558;42.702;23.178;2024-03-17T11:41:32;4.70;;;4.20;;
11010;SDS011;5558;42.702;23.178;2024-03-17T11:44:18;4.93;;;3.83;;
11010;SDS011;5558;42.702;23.178;2024-03-17T11:46:51;4.00;;;3.70;;
11010;SDS011;5558;42.702;23.178;2024-03-17T11:49:20;4.17;;;3.80;;
11010;SDS011;5558;42.702;23.178;2024-03-17T11:51:48;4.17;;;3.70;;
11010;SDS011;5558;42.702;23.178;2024-03-17T11:54:16;3.80;;;3.50;;
11010;SDS011;5558;42.702;23.178;2024-03-17T11:56:44;5.10;;;3.40;;
11010;SDS011;5558;42.702;23.178;2024-03-17T11:59:11;3.70;;;3.40;;
11010;SDS011;5558;42.702;23.178;2024-03-17T12:01:38;4.23;;;3.83;;
11010;SDS011;5558;42.702;23.178;2024-03-17T12:04:05;4.10;;;3.80;;
11010;SDS011;5558;42.702;23.178;2024-03-17T12:06:32;4.33;;;3.90;;
11010;SDS011;5558;42.702;23.178;2024-03-17T12:09:09;4.30;;;3.90;;
11010;SDS011;5558;42.702;23.178;2024-03-17T12:11:42;4.27;;;3.83;;
11010;SDS011;5558;42.702;23.178;2024-03-17T12:14:15;4.40;;;4.00;;
11010;SDS011;5558;42.702;23.178;2024-03-17T12:16:53;4.77;;;4.30;;
11010;SDS011;5558;42.702;23.178;2024-03-17T12:19:21;4.50;;;4.20;;
11010;SDS011;5558;42.702;23.178;2024-03-17T12:21:48;4.53;;;4.13;;
11010;SDS011;5558;42.702;23.178;2024-03-17T12:24:16;5.30;;;4.70;;
11010;SDS011;5558;42.702;23.178;2024-03-17T12:26:44;4.83;;;4.37;;
11010;SDS011;5558;42.702;23.178;2024-03-17T12:29:24;4.70;;;4.30;;
11010;SDS011;5558;42.702;23.178;2024-03-17T12:31:54;4.97;;;4.57;;
11010;SDS011;5558;42.702;23.178;2024-03-17T12:34:22;4.93;;;4.50;;
11010;SDS011;5558;42.702;23.178;2024-03-17T12:36:50;5.07;;;4.63;;
11010;SDS011;5558;42.702;23.178;2024-03-17T12:39:18;5.20;;;4.70;;
11010;SDS011;5558;42.702;23.178;2024-03-17T12:41:45;5.57;;;4.93;;
11010;SDS011;5558;42.702;23.178;2024-03-17T12:44:22;6.20;;;5.37;;
11010;SDS011;5558;42.702;23.178;2024-03-17T12:46:47;5.40;;;4.90;;
11010;SDS011;5558;42.702;23.178;2024-03-17T12:49:15;5.50;;;5.10;;
11010;SDS011;5558;42.702;23.178;2024-03-17T12:51:41;5.87;;;5.37;;
11010;SDS011;5558;42.702;23.178;2024-03-17T12:54:14;5.33;;;4.83;;
11010;SDS011;5558;42.702;23.178;2024-03-17T12:56:40;6.20;;;5.60;;
11010;SDS011;5558;42.702;23.178;2024-03-17T12:59:24;5.63;;;5.10;;
11010;SDS011;5558;42.702;23.178;2024-03-17T13:02:08;5.70;;;5.20;;
11010;SDS011;5558;42.702;23.178;2024-03-17T13:04:39;5.50;;;5.00;;
11010;SDS011;5558;42.702;23.178;2024-03-17T13:07:09;5.50;;;5.00;;
11010;SDS011;5558;42.702;23.178;2024-03-17T13:09:36;14.30;;;6.40;;
11010;SDS011;5558;42.702;23.178;2024-03-17T13:12:11;6.67;;;6.07;;
11010;SDS011;5558;42.702;23.178;2024-03-17T13:14:40;7.30;;;5.70;;
11010;SDS011;5558;42.702;23.178;2024-03-17T13:17:07;6.50;;;5.90;;
11010;SDS011;5558;42.702;23.178;2024-03-17T13:19:46;6.80;;;6.20;;
11010;SDS011;5558;42.702;23.178;2024-03-17T13:22:13;6.80;;;6.10;;
11010;SDS011;5558;42.702;23.178;2024-03-17T13:24:40;7.27;;;6.57;;
11010;SDS011;5558;42.702;23.178;2024-03-17T13:27:06;7.60;;;6.90;;
11010;SDS011;5558;42.702;23.178;2024-03-17T13:29:33;8.40;;;7.03;;
11010;SDS011;5558;42.702;23.178;2024-03-17T13:32:01;6.97;;;6.27;;
11010;SDS011;5558;42.702;23.178;2024-03-17T13:34:28;7.47;;;6.77;;
11010;SDS011;5558;42.702;23.178;2024-03-17T13:36:56;6.90;;;6.30;;
11010;SDS011;5558;42.702;23.178;2024-03-17T13:39:28;7.23;;;6.60;;
11010;SDS011;5558;42.702;23.178;2024-03-17T13:41:56;8.13;;;7.17;;
11010;SDS011;5558;42.702;23.178;2024-03-17T13:44:27;7.17;;;6.47;;
11010;SDS011;5558;42.702;23.178;2024-03-17T13:46:54;7.70;;;7.00;;
11010;SDS011;5558;42.702;23.178;2024-03-17T13:49:21;7.50;;;6.50;;
11010;SDS011;5558;42.702;23.178;2024-03-17T13:51:48;7.03;;;6.33;;
11010;SDS011;5558;42.702;23.178;2024-03-17T13:54:16;7.13;;;6.43;;
11010;SDS011;5558;42.702;23.178;2024-03-17T13:56:42;7.60;;;6.90;;
11010;SDS011;5558;42.702;23.178;2024-03-17T13:59:12;7.50;;;6.80;;
11010;SDS011;5558;42.702;23.178;2024-03-17T14:01:39;14.50;;;6.40;;
11010;SDS011;5558;42.702;23.178;2024-03-17T14:04:07;7.33;;;6.60;;
11010;SDS011;5558;42.702;23.178;2024-03-17T14:06:38;7.63;;;6.63;;
11010;SDS011;5558;42.702;23.178;2024-03-17T14:09:05;7.07;;;6.37;;
11010;SDS011;5558;42.702;23.178;2024-03-17T14:11:35;7.10;;;6.40;;
11010;SDS011;5558;42.702;23.178;2024-03-17T14:14:02;8.73;;;6.77;;
11010;SDS011;5558;42.702;23.178;2024-03-17T14:16:30;6.80;;;6.17;;
11010;SDS011;5558;42.702;23.178;2024-03-17T14:18:58;6.60;;;6.00;;
11010;SDS011;5558;42.702;23.178;2024-03-17T14:21:24;7.30;;;6.60;;
11010;SDS011;5558;42.702;23.178;2024-03-17T14:23:51;7.10;;;6.40;;
11010;SDS011;5558;42.702;23.178;2024-03-17T14:26:18;6.87;;;6.23;;
11010;SDS011;5558;42.702;23.178;2024-03-17T14:28:47;12.60;;;6.63;;
11010;SDS011;5558;42.702;23.178;2024-03-17T14:31:15;6.70;;;6.10;;
11010;SDS011;5558;42.702;23.178;2024-03-17T14:33:42;11.17;;;6.80;;
11010;SDS011;5558;42.702;23.178;2024-03-17T14:36:09;8.07;;;7.27;;
11010;SDS011;5558;42.702;23.178;2024-03-17T14:38:35;7.37;;;6.67;;
11010;SDS011;5558;42.702;23.178;2024-03-17T14:41:02;8.67;;;7.60;;